Time;durP1;ratioP1;P1;durP2;ratioP2;P2;SDS_P1;SDS_P2;PMS_P1;PMS_P2;Temp;Humidity;BMP_temperature;BMP_pressure;BME280_temperature;BME280_humidity;BME280_pressure;Samples;Min_cycle;Max_cycle;Signal;HPM_P1;HPM_P2
2023/12/03 00:00:48;;;;;;;13.38;8.40;;;;;;;2.65;92.02;99167.78;6373764;27;20086;-78
2023/12/03 00:03:49;;;;;;;15.98;8.93;;;;;;;2.52;91.69;99169.22;6373681;27;20456;-76
2023/12/03 00:06:52;;;;;;;17.25;9.15;;;;;;;2.43;92.18;99180.75;6373720;27;20051;-78
2023/12/03 00:09:53;;;;;;;;;;;;;;;2.26;92.95;99180.59;6373407;27;20407;-79
2023/12/03 00:12:54;;;;;;;13.18;6.80;;;;;;;2.23;92.90;99189.28;6373721;27;20025;-78
2023/12/03 00:15:55;;;;;;;13.63;7.70;;;;;;;2.27;92.70;99185.69;6373346;27;20047;-76
2023/12/03 00:18:56;;;;;;;14.90;8.02;;;;;;;2.36;93.02;99194.75;6374700;27;20051;-78
2023/12/03 00:21:57;;;;;;;15.40;8.07;;;;;;;2.22;93.05;99198.75;6374543;27;20056;-76
2023/12/03 00:24:58;;;;;;;9.10;6.35;;;;;;;2.40;93.05;99217.72;6374703;27;20043;-77
2023/12/03 00:27:59;;;;;;;15.43;7.75;;;;;;;2.19;93.26;99218.63;6374454;27;20066;-76
2023/12/03 00:31:00;;;;;;;17.95;7.95;;;;;;;2.49;92.88;99238.84;6372962;27;20102;-76
2023/12/03 00:34:02;;;;;;;13.82;8.25;;;;;;;2.24;92.73;99244.16;6374127;27;20101;-75
2023/12/03 00:37:03;;;;;;;8.70;5.60;;;;;;;2.30;92.54;99260.19;6372766;27;20043;-76
2023/12/03 00:40:06;;;;;;;14.70;7.88;;;;;;;2.27;93.23;99272.38;6373032;27;20046;-76
2023/12/03 00:43:07;;;;;;;16.05;7.63;;;;;;;2.23;93.00;99279.38;6372589;27;20047;-76
2023/12/03 00:46:11;;;;;;;14.80;8.48;;;;;;;2.46;92.95;99298.22;6372750;27;20529;-76
2023/12/03 00:49:12;;;;;;;13.45;7.78;;;;;;;2.48;92.40;99311.88;6373748;27;20047;-78
2023/12/03 00:52:13;;;;;;;19.73;8.70;;;;;;;2.60;92.40;99321.69;6373594;27;20462;-78
2023/12/03 00:55:14;;;;;;;12.93;8.10;;;;;;;2.59;91.59;99320.88;6373469;27;20050;-78
2023/12/03 00:58:14;;;;;;;15.07;8.32;;;;;;;2.71;91.81;99327.25;6373739;27;20054;-78
2023/12/03 01:01:19;;;;;;;17.40;8.05;;;;;;;2.62;91.49;99340.50;6373616;27;20043;-79
2023/12/03 01:04:22;;;;;;;19.80;8.52;;;;;;;2.67;91.52;99351.44;6372287;27;20051;-78
2023/12/03 01:07:23;;;;;;;16.13;8.15;;;;;;;2.66;91.39;99369.53;6373441;27;20090;-77
2023/12/03 01:10:26;;;;;;;13.30;8.23;;;;;;;2.59;91.47;99369.81;6373202;27;20047;-76
2023/12/03 01:13:27;;;;;;;14.20;7.20;;;;;;;2.66;91.45;99380.69;6372240;27;20093;-76
2023/12/03 01:16:28;;;;;;;18.08;7.63;;;;;;;2.60;91.62;99389.50;6371833;27;20047;-76
2023/12/03 01:19:29;;;;;;;13.60;7.50;;;;;;;2.50;92.51;99387.34;6372216;27;20039;-79
2023/12/03 01:22:30;;;;;;;14.18;7.47;;;;;;;2.56;92.77;99387.09;6371015;27;20047;-79
2023/12/03 01:25:31;;;;;;;13.88;7.60;;;;;;;2.58;92.64;99378.41;6372074;27;20039;-79
2023/12/03 01:28:32;;;;;;;13.65;7.60;;;;;;;2.65;92.62;99373.84;6371744;27;20047;-79
2023/12/03 01:31:33;;;;;;;16.35;9.05;;;;;;;2.68;92.90;99373.75;6371782;27;20414;-77
2023/12/03 01:34:34;;;;;;;15.20;7.63;;;;;;;2.68;93.33;99373.75;6372732;27;20043;-78
2023/12/03 01:37:35;;;;;;;13.68;8.05;;;;;;;2.76;93.84;99378.56;6371291;27;20486;-76
2023/12/03 01:40:35;;;;;;;18.17;8.32;;;;;;;2.76;93.23;99394.88;6371641;27;20049;-76
2023/12/03 01:43:50;;;;;;;12.38;7.57;;;;;;;2.81;93.01;99389.53;6371392;27;20050;-76
2023/12/03 01:46:51;;;;;;;10.32;7.20;;;;;;;2.73;92.91;99394.16;6371497;27;20046;-76
2023/12/03 01:49:52;;;;;;;17.85;7.72;;;;;;;2.77;93.37;99413.75;6371146;27;20054;-77
2023/12/03 01:52:54;;;;;;;12.10;7.65;;;;;;;2.78;93.41;99424.00;6371339;27;20047;-76
2023/12/03 01:55:55;;;;;;;21.05;7.90;;;;;;;2.79;93.55;99433.41;6372402;27;20039;-78
2023/12/03 01:58:56;;;;;;;14.05;7.85;;;;;;;2.65;93.11;99425.38;6372584;27;20051;-76
2023/12/03 02:01:57;;;;;;;16.15;7.35;;;;;;;2.54;92.99;99424.94;6371105;27;20087;-76
2023/12/03 02:04:58;;;;;;;11.18;7.05;;;;;;;2.66;93.41;99450.25;6371280;27;20047;-78
2023/12/03 02:08:00;;;;;;;15.55;7.70;;;;;;;2.68;93.50;99463.91;6371239;28;20058;-76
2023/12/03 02:11:02;;;;;;;13.20;6.97;;;;;;;2.73;92.80;99479.19;6372065;27;20458;-76
2023/12/03 02:14:03;;;;;;;16.83;8.77;;;;;;;2.77;92.81;99473.84;6371252;28;20053;-78
2023/12/03 02:17:06;;;;;;;14.05;7.82;;;;;;;2.73;93.05;99466.31;6372070;27;20043;-79
2023/12/03 02:20:08;;;;;;;17.10;7.82;;;;;;;2.67;93.62;99461.38;6372236;27;20495;-79
2023/12/03 02:23:09;;;;;;;13.63;6.45;;;;;;;2.75;92.74;99482.53;6370846;28;20051;-78
2023/12/03 02:26:09;;;;;;;15.48;7.78;;;;;;;2.72;93.26;99483.50;6372011;27;20076;-78
2023/12/03 02:29:10;;;;;;;10.32;6.78;;;;;;;2.78;93.19;99487.56;6371924;28;20498;-76
2023/12/03 02:32:11;;;;;;;13.23;7.25;;;;;;;2.75;92.69;99491.09;6370937;28;20081;-75
2023/12/03 02:35:12;;;;;;;13.32;7.40;;;;;;;2.81;93.02;99500.34;6375338;27;20379;-78
2023/12/03 02:38:15;;;;;;;11.23;6.60;;;;;;;2.81;92.87;99503.75;6375550;27;20414;-78
2023/12/03 02:41:16;;;;;;;14.25;6.97;;;;;;;2.84;93.03;99500.22;6377108;27;20175;-78
2023/12/03 02:44:17;;;;;;;12.80;7.72;;;;;;;2.83;92.85;99472.78;6375524;27;20411;-78
2023/12/03 02:47:18;;;;;;;15.88;8.15;;;;;;;2.83;92.94;99481.34;6376654;27;20076;-78
2023/12/03 02:50:19;;;;;;;14.60;7.70;;;;;;;2.85;93.25;99494.19;6375501;27;20054;-78
2023/12/03 02:53:19;;;;;;;14.13;7.53;;;;;;;2.80;93.84;99509.81;6375189;27;20090;-78
2023/12/03 02:56:20;;;;;;;13.43;7.50;;;;;;;2.79;93.94;99515.84;6375236;27;20116;-76
2023/12/03 02:59:21;;;;;;;15.18;7.50;;;;;;;2.79;94.43;99533.88;6376612;27;20454;-76
2023/12/03 03:02:22;;;;;;;16.15;8.10;;;;;;;2.85;94.33;99545.72;6375124;27;20055;-78
2023/12/03 03:05:23;;;;;;;17.27;8.68;;;;;;;2.86;94.32;99547.38;6375342;27;20510;-78
2023/12/03 03:08:24;;;;;;;15.90;7.85;;;;;;;2.88;94.28;99552.47;6375052;27;20138;-78
2023/12/03 03:11:24;;;;;;;15.57;7.53;;;;;;;2.80;94.29;99545.03;6376275;27;20051;-78
2023/12/03 03:14:25;;;;;;;16.70;8.45;;;;;;;2.81;94.82;99550.13;6376351;27;20460;-78
2023/12/03 03:17:26;;;;;;;17.45;7.63;;;;;;;2.82;94.66;99567.28;6375987;27;20441;-79
2023/12/03 03:20:28;;;;;;;16.17;7.80;;;;;;;2.80;94.41;99579.38;6374945;27;20122;-78
2023/12/03 03:23:29;;;;;;;16.83;8.57;;;;;;;2.80;95.32;99593.97;6376010;27;20055;-78
2023/12/03 03:26:30;;;;;;;19.10;8.15;;;;;;;2.81;95.06;99600.84;6374818;27;20515;-78
2023/12/03 03:29:30;;;;;;;16.90;9.10;;;;;;;2.79;94.81;99607.78;6375815;27;20051;-76
2023/12/03 03:32:31;;;;;;;13.45;7.90;;;;;;;2.71;94.42;99610.63;6376138;27;20046;-76
2023/12/03 03:35:33;;;;;;;16.13;8.38;;;;;;;2.69;94.04;99614.97;6374636;27;20095;-75
2023/12/03 03:38:36;;;;;;;17.45;9.00;;;;;;;2.72;93.87;99620.03;6374251;27;20100;-78
2023/12/03 03:41:37;;;;;;;15.45;8.38;;;;;;;2.71;93.97;99649.25;6375723;27;20047;-78
2023/12/03 03:44:40;;;;;;;13.60;7.75;;;;;;;2.61;93.45;99648.75;6374748;27;20061;-78
2023/12/03 03:47:41;;;;;;;15.60;7.63;;;;;;;2.68;93.55;99648.53;6375568;27;20039;-76
2023/12/03 03:50:42;;;;;;;16.48;8.68;;;;;;;2.74;92.52;99663.75;6373897;27;20051;-76
2023/12/03 03:53:43;;;;;;;13.57;7.82;;;;;;;2.72;92.58;99671.56;6375169;27;20502;-76
2023/12/03 03:56:47;;;;;;;15.73;7.65;;;;;;;2.67;92.05;99686.34;6373913;27;20452;-78
2023/12/03 03:59:47;;;;;;;13.32;7.28;;;;;;;2.74;91.69;99695.53;6375239;27;20104;-78
2023/12/03 04:02:48;;;;;;;15.02;8.20;;;;;;;2.70;91.72;99705.97;6373967;27;20459;-76
2023/12/03 04:05:49;;;;;;;14.38;7.28;;;;;;;2.56;91.05;99699.59;6373956;27;20047;-78
2023/12/03 04:08:50;;;;;;;12.80;7.05;;;;;;;2.59;91.20;99701.22;6374691;27;20131;-76
2023/12/03 04:11:51;;;;;;;20.95;7.50;;;;;;;2.56;91.73;99698.75;6373513;27;20517;-76
2023/12/03 04:14:54;;;;;;;13.73;7.28;;;;;;;2.60;91.70;99703.75;6373392;27;20051;-76
2023/12/03 04:17:55;;;;;;;16.10;8.02;;;;;;;2.59;91.58;99707.22;6373362;27;20084;-76
2023/12/03 04:20:56;;;;;;;15.68;8.02;;;;;;;2.50;91.17;99698.97;6374522;27;20043;-76
2023/12/03 04:23:57;;;;;;;16.25;9.20;;;;;;;2.51;91.17;99706.63;6373247;27;20086;-75
2023/12/03 04:26:58;;;;;;;16.13;7.75;;;;;;;2.53;91.25;99720.31;6373409;27;20067;-76
2023/12/03 04:29:59;;;;;;;14.38;8.05;;;;;;;2.50;91.00;99724.72;6373092;27;20138;-76
2023/12/03 04:33:00;;;;;;;16.60;8.27;;;;;;;2.59;91.43;99721.81;6374366;27;20051;-78
2023/12/03 04:36:07;;;;;;;17.17;8.80;;;;;;;2.55;91.57;99736.56;6374142;27;20039;-75
2023/12/03 04:39:08;;;;;;;14.07;8.48;;;;;;;2.62;91.07;99757.78;6372787;27;20047;-76
2023/12/03 04:42:09;;;;;;;14.52;8.00;;;;;;;2.68;90.84;99775.63;6372912;27;20062;-78
2023/12/03 04:45:10;;;;;;;14.82;7.53;;;;;;;2.64;89.98;99784.34;6372646;27;20043;-75
2023/12/03 04:48:11;;;;;;;17.00;8.52;;;;;;;2.61;90.44;99794.72;6372844;27;20055;-78
2023/12/03 04:51:13;;;;;;;13.98;7.65;;;;;;;2.62;90.49;99801.59;6372508;27;20055;-76
2023/12/03 04:54:16;;;;;;;15.38;8.98;;;;;;;2.58;90.51;99811.13;6372334;27;20055;-75
2023/12/03 04:57:17;;;;;;;16.10;8.57;;;;;;;2.52;90.97;99813.91;6372194;27;20070;-76
2023/12/03 05:00:18;;;;;;;15.88;8.18;;;;;;;2.44;91.88;99804.75;6372219;27;20120;-75
2023/12/03 05:03:19;;;;;;;22.52;9.10;;;;;;;2.41;92.13;99798.81;6372246;27;20059;-75
2023/12/03 05:06:20;;;;;;;18.25;9.85;;;;;;;2.48;93.13;99817.47;6372233;27;20078;-78
2023/12/03 05:09:21;;;;;;;15.52;8.30;;;;;;;2.39;93.14;99831.47;6373350;27;20414;-78
2023/12/03 05:12:22;;;;;;;16.80;8.65;;;;;;;2.51;93.26;99845.72;6373100;27;20078;-78
2023/12/03 05:15:23;;;;;;;18.52;9.90;;;;;;;2.39;93.84;99843.53;6372303;27;20379;-78
2023/12/03 05:18:24;;;;;;;15.40;7.97;;;;;;;2.46;93.85;99849.31;6373240;27;20456;-76
2023/12/03 05:21:25;;;;;;;15.45;8.82;;;;;;;2.45;93.50;99855.34;6371956;27;20047;-75
2023/12/03 05:24:26;;;;;;;15.43;8.52;;;;;;;2.36;93.71;99871.94;6372956;27;20043;-75
2023/12/03 05:27:27;;;;;;;19.30;9.65;;;;;;;2.39;93.35;99882.97;6373157;27;20070;-78
2023/12/03 05:30:28;;;;;;;18.23;10.52;;;;;;;2.35;93.36;99894.28;6371671;27;20058;-75
2023/12/03 05:33:28;;;;;;;16.33;9.25;;;;;;;2.42;93.16;99889.78;6371766;27;20062;-76
2023/12/03 05:36:29;;;;;;;19.25;10.85;;;;;;;2.42;93.40;99882.03;6371736;27;20043;-78
2023/12/03 05:39:30;;;;;;;19.88;11.48;;;;;;;2.41;93.17;99876.06;6371378;27;20050;-78
2023/12/03 05:42:31;;;;;;;19.88;9.48;;;;;;;2.48;93.00;99891.31;6372491;27;20105;-78
2023/12/03 05:45:32;;;;;;;17.05;10.00;;;;;;;2.36;92.85;99890.78;6371299;27;20491;-76
2023/12/03 05:48:33;;;;;;;20.70;9.77;;;;;;;2.45;93.46;99896.56;6371515;27;20050;-78
2023/12/03 05:51:34;;;;;;;18.02;9.43;;;;;;;2.41;93.05;99900.97;6372440;27;20047;-78
2023/12/03 05:54:35;;;;;;;20.83;10.32;;;;;;;2.42;93.22;99907.78;6372382;27;20407;-78
2023/12/03 05:57:36;;;;;;;15.90;8.93;;;;;;;2.41;93.27;99914.69;6372146;27;20092;-76
2023/12/03 06:00:37;;;;;;;18.98;9.95;;;;;;;2.51;93.26;99914.41;6370997;27;20053;-76
2023/12/03 06:03:38;;;;;;;17.73;9.45;;;;;;;2.44;92.67;99916.31;6371196;27;20134;-75
2023/12/03 06:06:38;;;;;;;22.55;10.25;;;;;;;2.43;93.24;99919.81;6371078;28;20047;-75
2023/12/03 06:09:39;;;;;;;21.95;10.73;;;;;;;2.40;92.77;99920.72;6371753;27;20043;-78
2023/12/03 06:12:40;;;;;;;15.88;8.98;;;;;;;2.41;92.72;99931.88;6370772;28;20483;-78
2023/12/03 06:15:41;;;;;;;16.75;9.32;;;;;;;2.40;92.57;99946.47;6372456;27;20097;-78
2023/12/03 06:18:42;;;;;;;19.38;8.95;;;;;;;2.37;92.56;99956.88;6370879;28;20047;-75
2023/12/03 06:21:45;;;;;;;16.55;8.48;;;;;;;2.46;92.00;99960.06;6372187;28;20051;-78
2023/12/03 06:24:46;;;;;;;15.30;8.27;;;;;;;2.41;91.41;99962.78;6370837;28;20047;-78
2023/12/03 06:27:49;;;;;;;15.23;7.53;;;;;;;2.46;91.43;99975.50;6370741;28;20054;-76
2023/12/03 06:30:51;;;;;;;18.00;8.60;;;;;;;2.54;91.31;99986.44;6371898;27;20118;-78
2023/12/03 06:33:52;;;;;;;17.80;9.30;;;;;;;2.57;91.12;99988.91;6372224;27;20058;-75
2023/12/03 06:36:53;;;;;;;16.05;7.57;;;;;;;2.63;90.76;99999.03;6371980;27;20089;-75
2023/12/03 06:39:54;;;;;;;22.58;9.55;;;;;;;2.69;91.74;99992.88;6370519;28;20498;-75
2023/12/03 06:42:55;;;;;;;15.23;8.70;;;;;;;2.70;91.40;99999.69;6370597;28;20062;-75
2023/12/03 06:45:58;;;;;;;18.30;8.98;;;;;;;2.79;91.35;100004.59;6370525;28;20043;-75
2023/12/03 06:48:59;;;;;;;13.95;8.45;;;;;;;2.77;90.83;100011.53;6370717;28;20086;-78
2023/12/03 06:52:00;;;;;;;15.10;8.13;;;;;;;2.81;90.27;100010.53;6371926;27;20054;-76
2023/12/03 06:55:01;;;;;;;14.65;9.07;;;;;;;2.78;90.17;100011.50;6371528;27;20113;-76
2023/12/03 06:58:03;;;;;;;18.27;8.38;;;;;;;2.73;89.72;100018.50;6370419;28;20051;-78
2023/12/03 07:01:04;;;;;;;18.30;8.75;;;;;;;2.68;90.02;100022.94;6370531;28;20051;-78
2023/12/03 07:04:05;;;;;;;18.75;9.35;;;;;;;2.70;89.87;100041.78;6370466;28;20074;-76
2023/12/03 07:07:06;;;;;;;14.15;8.23;;;;;;;2.70;90.09;100036.63;6370615;28;20043;-75
2023/12/03 07:10:07;;;;;;;17.75;9.35;;;;;;;2.76;89.45;100046.75;6370465;28;20050;-75
2023/12/03 07:13:08;;;;;;;19.40;9.48;;;;;;;2.77;89.30;100055.31;6370195;28;20196;-78
2023/12/03 07:16:12;;;;;;;18.58;8.57;;;;;;;2.81;89.55;100062.91;6370288;28;20051;-78
2023/12/03 07:19:13;;;;;;;19.55;9.95;;;;;;;3.00;89.87;100064.97;6371283;27;20130;-76
2023/12/03 07:22:14;;;;;;;36.78;16.88;;;;;;;3.09;90.49;100064.69;6374205;27;20353;-78
2023/12/03 07:25:15;;;;;;;25.75;12.93;;;;;;;3.13;90.53;100070.59;6375982;27;20051;-75
2023/12/03 07:28:15;;;;;;;18.15;9.25;;;;;;;3.05;90.51;100094.03;6374877;27;20511;-78
2023/12/03 07:31:16;;;;;;;15.27;8.27;;;;;;;2.99;91.57;100089.91;6374473;27;20415;-76
2023/12/03 07:34:17;;;;;;;22.52;9.45;;;;;;;2.97;91.86;100096.00;6375954;27;20138;-78
2023/12/03 07:37:18;;;;;;;17.15;8.65;;;;;;;2.97;91.87;100106.31;6374439;27;20047;-75
2023/12/03 07:40:19;;;;;;;19.35;9.25;;;;;;;2.99;92.04;100112.25;6375433;27;20139;-75
2023/12/03 07:43:20;;;;;;;18.95;9.52;;;;;;;3.09;91.63;100115.41;6374246;27;20406;-76
2023/12/03 07:46:22;;;;;;;19.02;9.02;;;;;;;3.04;91.82;100115.53;6374091;27;20043;-78
2023/12/03 07:49:25;;;;;;;20.90;9.13;;;;;;;3.09;91.35;100126.56;6374296;27;20047;-76
2023/12/03 07:52:26;;;;;;;18.20;8.35;;;;;;;3.18;91.71;100128.88;6373746;27;20047;-78
2023/12/03 07:55:27;;;;;;;23.42;7.93;;;;;;;3.05;90.87;100127.56;6375274;27;20051;-78
2023/12/03 07:58:28;;;;;;;13.95;7.28;;;;;;;3.25;90.87;100128.69;6373936;27;20360;-76
2023/12/03 08:01:30;;;;;;;14.43;8.27;;;;;;;3.25;89.96;100124.38;6374005;27;20417;-78
2023/12/03 08:04:30;;;;;;;17.52;9.07;;;;;;;3.37;89.45;100131.75;6375017;27;20475;-78
2023/12/03 08:07:31;;;;;;;16.60;8.60;;;;;;;3.47;89.31;100134.91;6374858;27;20055;-76
2023/12/03 08:10:34;;;;;;;19.95;9.15;;;;;;;3.38;88.51;100132.63;6374854;27;20051;-78
2023/12/03 08:13:35;;;;;;;15.05;7.45;;;;;;;3.39;87.77;100144.59;6373567;27;20047;-78
2023/12/03 08:16:36;;;;;;;17.60;7.78;;;;;;;3.33;87.80;100140.47;6373482;27;20448;-76
2023/12/03 08:19:37;;;;;;;17.75;9.13;;;;;;;3.44;87.82;100137.59;6373475;27;20055;-78
2023/12/03 08:22:38;;;;;;;14.65;7.97;;;;;;;3.60;87.67;100149.13;6374746;27;20076;-78
2023/12/03 08:25:39;;;;;;;13.98;8.50;;;;;;;3.61;87.24;100142.22;6373290;27;20395;-78
2023/12/03 08:28:41;;;;;;;13.65;7.88;;;;;;;3.59;86.11;100155.16;6373394;27;20062;-76
2023/12/03 08:31:42;;;;;;;17.77;8.95;;;;;;;3.77;85.70;100160.66;6372561;27;20134;-76
2023/12/03 08:34:43;;;;;;;15.55;8.90;;;;;;;3.70;85.78;100159.16;6374191;27;20441;-76
2023/12/03 08:37:45;;;;;;;18.77;9.57;;;;;;;3.70;85.26;100160.00;6372883;27;20540;-78
2023/12/03 08:40:46;;;;;;;15.80;8.10;;;;;;;3.68;84.97;100171.25;6372910;27;20570;-78
2023/12/03 08:43:47;;;;;;;19.30;8.52;;;;;;;3.72;84.77;100183.19;6374158;27;20051;-77
2023/12/03 08:46:48;;;;;;;12.40;6.93;;;;;;;3.62;85.36;100191.22;6373937;27;20043;-75
2023/12/03 08:49:49;;;;;;;12.85;7.43;;;;;;;3.49;84.95;100186.44;6372983;27;20490;-76
2023/12/03 08:52:50;;;;;;;16.02;7.35;;;;;;;3.54;84.16;100192.31;6373626;27;20054;-76
2023/12/03 08:55:51;;;;;;;12.20;7.40;;;;;;;3.56;83.62;100190.53;6372593;27;20152;-75
2023/12/03 08:58:53;;;;;;;12.13;7.05;;;;;;;3.68;83.82;100186.75;6373593;27;20051;-76
2023/12/03 09:01:54;;;;;;;15.18;6.75;;;;;;;3.78;82.99;100204.47;6373721;27;20063;-75
2023/12/03 09:04:55;;;;;;;18.20;9.38;;;;;;;3.64;84.35;100193.72;6372327;27;20160;-75
2023/12/03 09:07:56;;;;;;;16.70;8.40;;;;;;;3.51;86.65;100208.72;6373323;27;20043;-76
2023/12/03 09:10:57;;;;;;;16.25;7.95;;;;;;;3.46;88.28;100218.34;6372309;27;20069;-76
2023/12/03 09:13:58;;;;;;;17.00;7.72;;;;;;;3.46;89.31;100218.34;6372067;27;20057;-75
2023/12/03 09:16:58;;;;;;;10.95;6.60;;;;;;;3.33;89.66;100227.31;6373133;27;20263;-78
2023/12/03 09:19:59;;;;;;;13.57;6.57;;;;;;;3.31;89.95;100226.50;6372320;27;20083;-78
2023/12/03 09:23:00;;;;;;;12.73;7.43;;;;;;;3.25;90.24;100232.69;6373351;27;20087;-78
2023/12/03 09:26:01;;;;;;;15.93;7.38;;;;;;;3.29;90.40;100247.19;6372994;27;20150;-77
2023/12/03 09:29:02;;;;;;;18.95;8.20;;;;;;;3.38;89.63;100230.63;6371986;27;20051;-76
2023/12/03 09:32:04;;;;;;;11.52;7.22;;;;;;;3.39;89.67;100238.31;6371699;27;20073;-77
2023/12/03 09:35:05;;;;;;;18.33;7.55;;;;;;;3.33;89.83;100247.94;6373329;27;20051;-78
2023/12/03 09:38:06;;;;;;;13.88;7.45;;;;;;;3.32;89.01;100243.69;6371580;27;20139;-78
2023/12/03 09:41:13;;;;;;;11.25;6.60;;;;;;;3.36;88.76;100251.28;6371594;27;20490;-78
2023/12/03 09:44:26;;;;;;;13.13;6.88;;;;;;;3.13;88.89;100243.34;6371837;27;20047;-77
2023/12/03 09:47:31;;;;;;;15.00;6.72;;;;;;;3.40;89.20;100236.59;6371440;27;20388;-76
2023/12/03 09:50:34;;;;;;;14.02;8.63;;;;;;;3.28;89.28;100235.19;6371514;27;20050;-78
2023/12/03 09:53:37;;;;;;;18.05;8.55;;;;;;;3.20;89.39;100235.41;6372291;27;20075;-75
2023/12/03 09:56:42;;;;;;;16.77;7.30;;;;;;;2.97;89.90;100232.63;6371229;27;20391;-75
2023/12/03 09:59:48;;;;;;;21.02;7.75;;;;;;;3.10;90.56;100240.84;6371090;27;20047;-77
2023/12/03 10:02:55;;;;;;;12.85;6.32;;;;;;;3.05;90.28;100242.69;6372138;27;20059;-75
2023/12/03 10:05:56;;;;;;;17.10;7.25;;;;;;;3.05;89.77;100251.31;6372238;27;20050;-77
2023/12/03 10:08:57;;;;;;;12.25;6.75;;;;;;;2.88;89.48;100241.41;6371189;27;20051;-75
2023/12/03 10:12:04;;;;;;;18.10;7.22;;;;;;;2.96;90.38;100243.78;6370914;28;20479;-78
2023/12/03 10:15:06;;;;;;;23.98;8.98;;;;;;;2.87;90.80;100239.75;6372234;27;20097;-75
2023/12/03 10:18:06;;;;;;;14.07;7.13;;;;;;;2.75;91.29;100242.63;6370956;28;20077;-77
2023/12/03 10:21:08;;;;;;;11.57;5.47;;;;;;;2.58;90.94;100245.66;6371087;28;20482;-77
2023/12/03 10:24:09;;;;;;;12.27;6.40;;;;;;;2.65;91.13;100244.59;6371028;28;20047;-77
2023/12/03 10:27:11;;;;;;;13.35;8.27;;;;;;;2.71;91.16;100246.19;6371107;28;20441;-76
2023/12/03 10:30:12;;;;;;;14.52;6.63;;;;;;;2.42;91.26;100246.00;6372006;27;20176;-76
2023/12/03 10:33:15;;;;;;;12.23;6.93;;;;;;;2.74;91.31;100256.38;6370745;28;20051;-75
2023/12/03 10:36:18;;;;;;;13.35;6.13;;;;;;;2.58;90.50;100258.53;6370779;28;20091;-75
2023/12/03 10:39:19;;;;;;;11.73;6.63;;;;;;;2.65;91.86;100259.22;6371795;27;20054;-78
2023/12/03 10:42:20;;;;;;;17.42;7.70;;;;;;;2.67;91.14;100265.16;6372086;28;20183;-77
2023/12/03 10:45:21;;;;;;;11.50;5.53;;;;;;;2.34;90.03;100260.78;6370600;28;20051;-77
2023/12/03 10:48:23;;;;;;;6.60;4.20;;;;;;;2.45;90.60;100267.41;6371923;27;20096;-77
2023/12/03 10:51:25;;;;;;;12.27;5.72;;;;;;;2.37;90.44;100257.31;6370515;28;20542;-78
2023/12/03 10:54:26;;;;;;;;;;;;;;;2.61;89.51;100266.16;6371950;27;20506;-75
2023/12/03 10:57:32;;;;;;;17.23;8.02;;;;;;;2.35;88.45;100259.09;6375354;27;19920;-77
2023/12/03 11:00:43;;;;;;;9.07;5.32;;;;;;;2.38;88.52;100270.13;6375554;27;20080;-78
2023/12/03 11:03:59;;;;;;;7.43;5.03;;;;;;;2.14;88.23;100268.13;6375285;27;20051;-77
2023/12/03 11:07:05;;;;;;;9.90;5.25;;;;;;;2.15;87.41;100270.69;6375420;27;20128;-77
2023/12/03 11:10:10;;;;;;;9.25;5.43;;;;;;;2.37;87.34;100268.47;6375135;27;20054;-75
2023/12/03 11:13:12;;;;;;;5.97;3.47;;;;;;;2.42;87.13;100268.34;6376361;27;20058;-75
2023/12/03 11:16:15;;;;;;;14.25;5.55;;;;;;;2.63;86.85;100264.41;6374897;27;20054;-75
2023/12/03 11:19:19;;;;;;;9.45;5.50;;;;;;;2.79;85.90;100275.16;6376375;27;20047;-75
2023/12/03 11:22:41;;;;;;;7.10;4.57;;;;;;;2.68;84.65;100280.59;6368138;27;20051;-75
2023/12/03 11:25:57;;;;;;;6.32;4.38;;;;;;;3.00;83.96;100287.50;6361457;27;20441;-75
2023/12/03 11:28:58;;;;;;;4.22;3.13;;;;;;;2.84;83.13;100278.47;6348805;27;20048;-75
2023/12/03 11:31:59;;;;;;;6.80;4.35;;;;;;;2.96;82.18;100277.31;6349650;27;20452;-75
2023/12/03 11:35:03;;;;;;;8.02;4.90;;;;;;;3.19;80.66;100281.84;6360797;27;20080;-75
2023/12/03 11:38:28;;;;;;;7.75;4.22;;;;;;;2.82;80.84;100282.81;6363236;27;20047;-77
2023/12/03 11:41:38;;;;;;;6.57;3.22;;;;;;;2.83;80.26;100290.50;6353978;27;20485;-77
2023/12/03 11:44:39;;;;;;;8.05;4.65;;;;;;;2.76;79.56;100298.44;6352469;27;20109;-75
2023/12/03 11:47:45;;;;;;;12.27;4.93;;;;;;;2.67;79.43;100294.34;6348788;28;20505;-76
2023/12/03 11:50:48;;;;;;;7.25;4.20;;;;;;;2.69;79.85;100304.63;6359435;27;20475;-75
2023/12/03 11:53:59;;;;;;;16.17;8.07;;;;;;;2.80;80.17;100300.91;6355064;27;20079;-76
2023/12/03 11:57:00;;;;;;;13.50;7.13;;;;;;;2.83;80.47;100308.56;6374067;27;20449;-77
2023/12/03 12:00:06;;;;;;;18.38;8.50;;;;;;;2.91;79.54;100303.22;6366674;27;20075;-77
2023/12/03 12:03:07;;;;;;;32.08;14.90;;;;;;;3.14;79.89;100315.50;6364173;27;20077;-77
2023/12/03 12:06:08;;;;;;;29.80;12.05;;;;;;;2.84;80.01;100314.53;6363184;27;20040;-77
2023/12/03 12:09:11;;;;;;;7.70;3.97;;;;;;;2.95;78.76;100309.97;6365564;27;20043;-77
2023/12/03 12:12:14;;;;;;;7.85;4.60;;;;;;;3.05;78.63;100315.75;6368207;27;20043;-78
2023/12/03 12:15:15;;;;;;;5.50;3.95;;;;;;;3.05;76.86;100302.00;6362970;27;20054;-78
2023/12/03 12:18:19;;;;;;;8.82;4.28;;;;;;;3.14;76.01;100307.75;6365099;27;20059;-77
2023/12/03 12:21:21;;;;;;;13.40;6.97;;;;;;;3.13;76.37;100312.94;6356984;27;20055;-77
2023/12/03 12:24:23;;;;;;;8.85;5.32;;;;;;;3.20;77.05;100310.19;6367927;27;20054;-77
2023/12/03 12:27:25;;;;;;;12.57;7.13;;;;;;;2.82;76.11;100309.44;6375727;27;20042;-77
2023/12/03 12:30:33;;;;;;;12.60;6.82;;;;;;;2.89;77.38;100315.28;6372575;27;20050;-77
2023/12/03 12:33:35;;;;;;;21.75;12.50;;;;;;;3.00;76.57;100310.69;6372973;27;20521;-75
2023/12/03 12:36:40;;;;;;;13.43;9.20;;;;;;;3.04;76.09;100314.03;6377030;27;20718;-75
2023/12/03 12:39:41;;;;;;;9.43;5.75;;;;;;;3.36;75.67;100309.78;6399966;27;20047;-74
2023/12/03 12:42:47;;;;;;;7.10;3.83;;;;;;;3.43;74.86;100316.47;6395131;27;20410;-75
2023/12/03 12:45:49;;;;;;;11.88;6.15;;;;;;;3.71;73.42;100318.28;6372849;27;20047;-74
2023/12/03 12:48:50;;;;;;;8.57;5.93;;;;;;;3.78;73.14;100328.38;6375037;27;20506;-74
2023/12/03 12:51:51;;;;;;;14.40;7.63;;;;;;;4.00;73.78;100332.94;6374325;27;20084;-77
2023/12/03 12:54:53;;;;;;;9.68;5.47;;;;;;;4.11;72.99;100330.84;6391423;27;20065;-77
2023/12/03 12:57:56;;;;;;;9.93;4.10;;;;;;;3.90;72.21;100337.50;6377836;27;20054;-77
2023/12/03 13:00:58;;;;;;;7.97;4.55;;;;;;;3.37;71.10;100332.94;6377471;27;20054;-74
2023/12/03 13:03:59;;;;;;;11.90;4.90;;;;;;;3.37;70.73;100338.09;6392981;27;20491;-75
2023/12/03 13:07:03;;;;;;;15.07;6.85;;;;;;;3.37;70.96;100348.41;6371833;27;20053;-77
2023/12/03 13:10:05;;;;;;;10.50;5.78;;;;;;;3.15;71.68;100347.28;6371847;27;20491;-77
2023/12/03 13:13:06;;;;;;;14.00;7.73;;;;;;;2.98;72.11;100343.41;6380753;27;20047;-74
2023/12/03 13:16:10;;;;;;;9.23;5.32;;;;;;;2.80;72.31;100334.41;6392125;27;20047;-74
2023/12/03 13:19:11;;;;;;;11.75;6.32;;;;;;;2.82;73.03;100345.53;6372737;27;20554;-74
2023/12/03 13:22:13;;;;;;;15.02;7.63;;;;;;;2.69;72.46;100345.84;6377275;27;20095;-77
2023/12/03 13:25:17;;;;;;;9.23;5.15;;;;;;;2.33;73.12;100351.00;6370292;27;20072;-76
2023/12/03 13:28:18;;;;;;;6.68;3.92;;;;;;;2.59;72.77;100353.81;6370941;27;20411;-77
2023/12/03 13:31:19;;;;;;;7.55;4.25;;;;;;;2.76;72.74;100350.84;6366779;27;20048;-77
2023/12/03 13:34:20;;;;;;;7.07;4.10;;;;;;;2.78;71.81;100351.66;6363773;27;20118;-77
2023/12/03 13:37:20;;;;;;;6.60;4.45;;;;;;;2.59;72.51;100356.38;6364173;27;20490;-77
2023/12/03 13:40:24;;;;;;;6.40;3.55;;;;;;;2.48;72.37;100365.25;6371648;27;20105;-77
2023/12/03 13:43:25;;;;;;;6.68;3.95;;;;;;;2.33;73.12;100372.44;6371478;27;20054;-74
2023/12/03 13:46:27;;;;;;;9.15;4.13;;;;;;;2.48;72.82;100370.41;6383805;27;20129;-74
2023/12/03 13:49:28;;;;;;;7.22;3.90;;;;;;;2.52;73.36;100380.59;6371282;27;20047;-74
2023/12/03 13:52:29;;;;;;;6.75;3.75;;;;;;;2.41;73.96;100374.84;6371066;27;20057;-77
2023/12/03 13:55:32;;;;;;;5.72;3.65;;;;;;;2.33;74.25;100379.31;6370372;27;20047;-77
2023/12/03 13:58:35;;;;;;;16.77;4.55;;;;;;;2.41;74.02;100392.88;6378696;27;20050;-74
2023/12/03 14:01:36;;;;;;;9.68;4.05;;;;;;;2.41;73.94;100391.13;6360702;27;20039;-75
2023/12/03 14:04:37;;;;;;;11.93;5.57;;;;;;;2.38;73.78;100393.75;6365503;27;20043;-77
2023/12/03 14:07:38;;;;;;;19.20;8.05;;;;;;;2.21;73.45;100404.44;6363326;27;20047;-76
2023/12/03 14:10:39;;;;;;;11.23;5.70;;;;;;;2.14;74.42;100399.44;6361757;28;20071;-76
2023/12/03 14:13:39;;;;;;;11.18;5.85;;;;;;;2.25;74.56;100410.38;6353445;28;20497;-76